createdAt,value
2023-04-06T00:02:11.861Z,72.71
2023-04-06T00:04:41.531Z,71.78
2023-04-06T00:07:09.923Z,72.66
2023-04-06T00:09:38.091Z,72.03
2023-04-06T00:12:06.833Z,72.01
2023-04-06T00:14:34.989Z,70.51
2023-04-06T00:17:03.200Z,70.74
2023-04-06T00:19:31.462Z,70.59
2023-04-06T00:22:01.549Z,70.75
2023-04-06T00:24:30.372Z,70.51
2023-04-06T00:26:58.516Z,70.45
2023-04-06T00:29:26.659Z,70.56
2023-04-06T00:31:54.797Z,70.76
2023-04-06T00:34:22.977Z,70.46
2023-04-06T00:36:51.792Z,70.47
2023-04-06T00:39:21.460Z,69.85
2023-04-06T00:41:52.377Z,69.56
2023-04-06T00:44:20.606Z,70.06
2023-04-06T00:46:48.792Z,68.88
2023-04-06T00:49:16.960Z,69.49
2023-04-06T00:51:45.600Z,69.18
2023-04-06T00:54:14.137Z,69.23
2023-04-06T00:56:46.458Z,68.83
2023-04-06T00:59:14.856Z,69.37
2023-04-06T01:01:44.223Z,68.14
2023-04-06T01:04:27.970Z,68.67
2023-04-06T01:06:56.708Z,68.20
2023-04-06T01:09:31.567Z,68.79
2023-04-06T01:12:05.532Z,69.09
2023-04-06T01:14:36.039Z,67.91
2023-04-06T01:17:04.304Z,68.49
2023-04-06T01:19:35.405Z,68.27
2023-04-06T01:22:04.163Z,69.61
2023-04-06T01:24:33.782Z,68.63
2023-04-06T01:27:29.124Z,69.37
2023-04-06T01:30:17.285Z,69.15
2023-04-06T01:33:02.237Z,69.22
2023-04-06T01:35:40.603Z,68.91
2023-04-06T01:38:27.442Z,68.08
2023-04-06T01:40:57.240Z,67.78
2023-04-06T01:43:27.652Z,68.49
2023-04-06T01:46:06.176Z,69.02
2023-04-06T01:48:38.007Z,69.14
2023-04-06T01:51:19.144Z,69.69
2023-04-06T01:53:56.373Z,70.45
2023-04-06T01:56:33.647Z,69.53
2023-04-06T01:59:22.331Z,68.49
2023-04-06T02:01:50.738Z,68.90
2023-04-06T02:04:19.794Z,69.43
2023-04-06T02:06:51.892Z,67.81
2023-04-06T02:09:24.358Z,68.58
2023-04-06T02:11:54.096Z,68.66
2023-04-06T02:14:23.777Z,68.43
2023-04-06T02:16:55.438Z,69.37
2023-04-06T02:19:24.550Z,68.63
2023-04-06T02:21:52.725Z,67.59
2023-04-06T02:24:20.927Z,67.88
2023-04-06T02:26:49.161Z,67.82
2023-04-06T02:29:19.168Z,68.30
2023-04-06T02:31:48.055Z,67.97
2023-04-06T02:34:18.778Z,68.78
2023-04-06T02:36:51.107Z,68.04
2023-04-06T02:39:19.594Z,68.29
2023-04-06T02:41:48.367Z,67.91
2023-04-06T02:44:22.880Z,67.89
2023-04-06T02:46:51.306Z,67.69
2023-04-06T02:49:19.461Z,68.58
2023-04-06T02:51:47.641Z,68.48
2023-04-06T02:54:26.827Z,68.61
2023-04-06T02:56:55.546Z,67.83
2023-04-06T02:59:29.606Z,67.33
2023-04-06T03:02:06.655Z,67.39
2023-04-06T03:04:34.860Z,67.25
2023-04-06T03:07:06.597Z,67.75
2023-04-06T03:09:38.930Z,68.37
2023-04-06T03:12:09.778Z,68.02
2023-04-06T03:14:56.209Z,68.06
2023-04-06T03:17:24.581Z,68.67
2023-04-06T03:19:52.817Z,68.97
2023-04-06T03:22:22.267Z,69.04
2023-04-06T03:24:50.873Z,68.96
2023-04-06T03:27:19.181Z,68.93
2023-04-06T03:29:48.937Z,69.16
2023-04-06T03:32:24.213Z,69.08
2023-04-06T03:34:52.541Z,68.98
2023-04-06T03:37:20.825Z,69.55
2023-04-06T03:39:54.796Z,69.79
2023-04-06T03:42:25.928Z,70.05
2023-04-06T03:44:58.894Z,68.99
2023-04-06T03:47:28.859Z,69.38
2023-04-06T03:50:00.966Z,69.42
2023-04-06T03:52:29.754Z,69.58
2023-04-06T03:54:57.918Z,69.23
2023-04-06T03:57:26.068Z,69.06
2023-04-06T03:59:54.235Z,69.68
2023-04-06T04:02:22.421Z,69.34
2023-04-06T04:04:54.124Z,69.72
2023-04-06T04:07:22.287Z,69.55
2023-04-06T04:09:50.519Z,68.51
2023-04-06T04:12:18.759Z,69.11
2023-04-06T04:14:46.968Z,68.93
2023-04-06T04:17:15.131Z,68.45
2023-04-06T04:19:43.620Z,68.81
2023-04-06T04:22:13.443Z,69.45
2023-04-06T04:24:43.232Z,69.76
2023-04-06T04:27:11.897Z,70.34
2023-04-06T04:29:41.679Z,69.97
2023-04-06T04:32:12.960Z,69.52
2023-04-06T04:34:41.886Z,69.94
2023-04-06T04:37:16.319Z,69.25
2023-04-06T04:39:50.561Z,68.69
2023-04-06T04:42:18.854Z,68.55
2023-04-06T04:44:52.229Z,68.86
2023-04-06T04:47:33.058Z,69.10
2023-04-06T04:50:01.631Z,68.97
2023-04-06T04:52:32.555Z,69.35
2023-04-06T04:55:22.605Z,70.00
2023-04-06T04:57:55.333Z,70.22
2023-04-06T05:00:30.462Z,69.79
2023-04-06T05:03:00.804Z,69.31
2023-04-06T05:05:32.103Z,68.96
2023-04-06T05:08:02.536Z,68.73
2023-04-06T05:10:42.996Z,68.82
2023-04-06T05:13:11.218Z,69.01
2023-04-06T05:15:41.342Z,68.64
2023-04-06T05:18:21.346Z,67.57
2023-04-06T05:20:50.870Z,68.33
2023-04-06T05:23:20.718Z,68.42
2023-04-06T05:25:50.250Z,68.63
2023-04-06T05:28:22.677Z,67.11
2023-04-06T05:30:51.385Z,67.39
2023-04-06T05:33:20.161Z,67.72
2023-04-06T05:36:08.152Z,66.20
2023-04-06T05:38:42.216Z,66.87
2023-04-06T05:41:35.443Z,66.36
2023-04-06T05:44:04.244Z,66.65
2023-04-06T05:46:33.388Z,66.23
2023-04-06T05:49:03.195Z,66.76
2023-04-06T05:51:35.243Z,65.75
2023-04-06T05:54:06.212Z,66.04
2023-04-06T05:56:35.073Z,65.97
2023-04-06T05:59:04.778Z,65.87
2023-04-06T06:01:33.885Z,66.75
2023-04-06T06:04:02.901Z,66.92
2023-04-06T06:06:33.793Z,65.98
2023-04-06T06:09:21.885Z,66.23
2023-04-06T06:12:08.541Z,65.52
2023-04-06T06:14:37.186Z,65.76
2023-04-06T06:17:05.427Z,66.44
2023-04-06T06:19:33.917Z,66.44
2023-04-06T06:22:06.113Z,66.79
2023-04-06T06:24:39.435Z,65.85
2023-04-06T06:27:08.831Z,66.25
2023-04-06T06:29:39.149Z,65.76
2023-04-06T06:32:09.932Z,64.01
2023-04-06T06:34:39.344Z,65.27
2023-04-06T06:37:09.432Z,64.45
2023-04-06T06:39:41.332Z,63.68
2023-04-06T06:42:09.624Z,62.99
2023-04-06T06:45:03.246Z,62.03
2023-04-06T06:47:31.687Z,63.59
2023-04-06T06:49:59.882Z,63.62
2023-04-06T06:52:29.926Z,62.60
2023-04-06T06:54:59.528Z,63.15
2023-04-06T06:57:28.040Z,61.64
2023-04-06T06:59:56.698Z,62.57
2023-04-06T07:02:25.799Z,61.16
2023-04-06T07:04:54.033Z,62.50
2023-04-06T07:07:22.646Z,61.80
2023-04-06T07:09:50.946Z,61.82
2023-04-06T07:12:20.590Z,61.79
2023-04-06T07:14:48.871Z,61.52
2023-04-06T07:17:17.142Z,60.12
2023-04-06T07:19:46.143Z,59.58
2023-04-06T07:22:14.618Z,59.34
2023-04-06T07:24:42.795Z,58.61
2023-04-06T07:27:10.997Z,56.89
2023-04-06T07:29:40.908Z,58.23
2023-04-06T07:32:09.590Z,59.56
2023-04-06T07:34:37.976Z,55.95
2023-04-06T07:37:06.777Z,57.08
2023-04-06T07:39:36.149Z,57.39
2023-04-06T07:42:04.383Z,56.48
2023-04-06T07:44:32.613Z,56.46
2023-04-06T07:47:02.825Z,53.99
2023-04-06T07:49:31.447Z,54.37
2023-04-06T07:51:59.676Z,53.85
2023-04-06T07:54:29.344Z,51.72
2023-04-06T07:56:57.497Z,52.43
2023-04-06T07:59:26.411Z,52.52
2023-04-06T08:01:54.845Z,51.48
2023-04-06T08:04:24.466Z,53.05
2023-04-06T08:06:52.682Z,52.03
2023-04-06T08:09:20.929Z,54.40
2023-04-06T08:11:49.765Z,50.36
2023-04-06T08:14:18.373Z,49.27
2023-04-06T08:16:46.530Z,49.06
2023-04-06T08:19:14.690Z,48.49
2023-04-06T08:21:44.335Z,49.68
2023-04-06T08:24:12.679Z,48.04
2023-04-06T08:26:40.862Z,48.02
2023-04-06T08:29:09.494Z,46.96
2023-04-06T08:31:37.886Z,49.00
2023-04-06T08:34:06.435Z,46.91
2023-04-06T08:36:34.905Z,47.80
2023-04-06T08:39:04.558Z,49.83
2023-04-06T08:41:33.137Z,48.89
2023-04-06T08:44:01.807Z,45.16
2023-04-06T08:46:31.514Z,46.24
2023-04-06T08:49:00.113Z,46.43
2023-04-06T08:51:28.418Z,47.11
2023-04-06T08:53:56.807Z,47.74
2023-04-06T08:56:27.304Z,45.99
2023-04-06T08:58:56.184Z,44.75
2023-04-06T09:01:26.275Z,45.16
2023-04-06T09:03:57.149Z,45.29
2023-04-06T09:06:25.399Z,47.10
2023-04-06T09:08:55.818Z,45.52
2023-04-06T09:11:24.004Z,45.47
2023-04-06T09:13:54.240Z,44.69
2023-04-06T09:16:22.452Z,45.51
2023-04-06T09:18:51.070Z,43.24
2023-04-06T09:21:19.801Z,45.33
2023-04-06T09:23:49.718Z,44.95
2023-04-06T09:26:18.799Z,45.89
2023-04-06T09:28:47.740Z,43.78
2023-04-06T09:31:17.756Z,42.97
2023-04-06T09:33:47.151Z,42.17
2023-04-06T09:36:16.806Z,42.48
2023-04-06T09:38:55.646Z,41.92
2023-04-06T09:41:25.493Z,43.75
2023-04-06T09:43:54.141Z,42.34
2023-04-06T09:46:24.641Z,41.82
2023-04-06T09:48:52.829Z,42.05
2023-04-06T09:51:22.352Z,41.16
2023-04-06T09:53:53.661Z,38.95
2023-04-06T09:56:24.664Z,36.60
2023-04-06T09:58:53.040Z,39.60
2023-04-06T10:01:21.330Z,38.17
2023-04-06T10:03:54.013Z,39.21
2023-04-06T10:06:26.456Z,40.90
2023-04-06T10:08:55.633Z,41.86
2023-04-06T10:11:23.823Z,39.50
2023-04-06T10:13:51.976Z,40.15
2023-04-06T10:16:20.268Z,37.11
2023-04-06T10:18:52.384Z,37.82
2023-04-06T10:21:22.636Z,34.65
2023-04-06T10:23:51.416Z,36.40
2023-04-06T10:26:22.399Z,35.37
2023-04-06T10:28:51.083Z,36.00
2023-04-06T10:31:27.324Z,39.40
2023-04-06T10:34:00.512Z,35.98
2023-04-06T10:36:29.194Z,34.99
2023-04-06T10:38:58.656Z,36.68
2023-04-06T10:41:27.400Z,36.51
2023-04-06T10:43:58.782Z,35.13
2023-04-06T10:46:27.621Z,36.87
2023-04-06T10:48:55.846Z,36.89
2023-04-06T10:51:29.301Z,37.78
2023-04-06T10:53:57.937Z,37.15
2023-04-06T10:56:29.046Z,37.06
2023-04-06T10:58:58.031Z,36.60
2023-04-06T11:01:27.710Z,34.60
2023-04-06T11:03:59.157Z,35.10
2023-04-06T11:06:30.392Z,35.13
2023-04-06T11:08:58.910Z,33.46
2023-04-06T11:11:28.167Z,35.59
2023-04-06T11:13:57.603Z,36.23
2023-04-06T11:16:27.577Z,35.44
2023-04-06T11:18:57.240Z,34.61
2023-04-06T11:21:47.719Z,34.89
2023-04-06T11:24:17.358Z,37.80
2023-04-06T11:26:46.890Z,38.72
2023-04-06T11:29:15.233Z,37.88
2023-04-06T11:31:43.847Z,38.29
2023-04-06T11:34:13.331Z,36.31
2023-04-06T11:36:46.341Z,35.47
2023-04-06T11:39:14.619Z,34.33
2023-04-06T11:41:43.155Z,36.57
2023-04-06T11:44:11.342Z,35.96
2023-04-06T11:46:39.557Z,36.19
2023-04-06T11:49:07.830Z,34.33
2023-04-06T11:51:38.076Z,33.11
2023-04-06T11:54:08.306Z,35.09
2023-04-06T11:56:36.670Z,31.78
2023-04-06T11:59:04.993Z,33.91
2023-04-06T12:01:38.813Z,33.32
2023-04-06T12:04:07.606Z,34.30
2023-04-06T12:06:36.254Z,35.16
2023-04-06T12:09:04.896Z,34.72
2023-04-06T12:11:34.555Z,34.95
2023-04-06T12:14:05.769Z,34.68
2023-04-06T12:16:34.205Z,33.73
2023-04-06T12:19:02.790Z,33.96
2023-04-06T12:21:32.015Z,34.77
2023-04-06T12:24:00.718Z,34.98
2023-04-06T12:26:29.090Z,34.91
2023-04-06T12:29:00.339Z,35.78
2023-04-06T12:31:28.617Z,35.28
2023-04-06T12:33:56.827Z,35.05
2023-04-06T12:36:25.956Z,36.53
2023-04-06T12:38:54.119Z,38.21
2023-04-06T12:41:24.487Z,37.07
2023-04-06T12:43:52.653Z,37.87
2023-04-06T12:46:22.227Z,37.58
2023-04-06T12:48:50.621Z,36.35
2023-04-06T12:51:19.463Z,36.90
2023-04-06T12:53:47.628Z,37.15
2023-04-06T12:56:16.703Z,38.18
2023-04-06T12:58:53.583Z,36.75
2023-04-06T13:01:23.340Z,37.51
2023-04-06T13:03:52.440Z,38.08
2023-04-06T13:06:20.785Z,36.52
2023-04-06T13:08:51.130Z,36.87
2023-04-06T13:11:21.525Z,37.29
2023-04-06T13:13:49.705Z,37.46
2023-04-06T13:16:18.012Z,36.41
2023-04-06T13:18:48.089Z,36.91
2023-04-06T13:21:17.599Z,37.89
2023-04-06T13:23:45.885Z,38.42
2023-04-06T13:26:16.185Z,38.34
2023-04-06T13:28:44.499Z,38.33
2023-04-06T13:31:12.957Z,38.37
2023-04-06T13:33:41.909Z,39.09
2023-04-06T13:36:11.577Z,37.96
2023-04-06T13:38:40.363Z,37.69
2023-04-06T13:41:08.631Z,39.02
2023-04-06T13:43:37.151Z,38.59
2023-04-06T13:46:06.019Z,37.97
2023-04-06T13:48:34.165Z,38.52
2023-04-06T13:51:11.878Z,38.54
2023-04-06T13:53:41.595Z,38.98
2023-04-06T13:56:10.475Z,39.98
2023-04-06T13:58:38.575Z,37.12
2023-04-06T14:01:08.278Z,38.37
2023-04-06T14:03:37.109Z,37.82
2023-04-06T14:06:26.936Z,37.37
2023-04-06T14:08:59.187Z,36.96
2023-04-06T14:11:27.511Z,37.43
2023-04-06T14:13:58.247Z,35.93
2023-04-06T14:16:27.457Z,36.62
2023-04-06T14:18:56.017Z,34.79
2023-04-06T14:21:25.754Z,36.24
2023-04-06T14:23:53.855Z,36.22
2023-04-06T14:26:21.984Z,35.51
2023-04-06T14:28:50.568Z,35.77
2023-04-06T14:31:18.763Z,34.90
2023-04-06T14:33:47.436Z,35.57
2023-04-06T14:36:15.767Z,36.53
2023-04-06T14:38:47.593Z,35.50
2023-04-06T14:41:19.189Z,35.67
2023-04-06T14:43:48.274Z,34.53
2023-04-06T14:46:16.816Z,34.31
2023-04-06T14:48:45.051Z,34.61
2023-04-06T14:51:13.212Z,35.40
2023-04-06T14:53:41.349Z,34.66
2023-04-06T14:56:11.442Z,35.49
2023-04-06T14:58:39.514Z,35.89
2023-04-06T15:01:07.706Z,35.58
2023-04-06T15:03:35.980Z,36.56
2023-04-06T15:06:04.130Z,35.27
2023-04-06T15:08:32.448Z,35.45
2023-04-06T15:11:01.598Z,36.72
2023-04-06T15:13:31.074Z,36.55
2023-04-06T15:16:01.289Z,36.71
2023-04-06T15:18:30.122Z,35.75
2023-04-06T15:20:58.536Z,35.23
2023-04-06T15:23:26.682Z,35.94
2023-04-06T15:25:54.738Z,37.09
2023-04-06T15:28:22.886Z,36.50
2023-04-06T15:30:52.522Z,35.52
2023-04-06T15:33:21.947Z,36.51
2023-04-06T15:35:50.528Z,38.01
2023-04-06T15:38:18.626Z,36.78
2023-04-06T15:40:47.222Z,36.08
2023-04-06T15:43:15.542Z,37.60
2023-04-06T15:45:43.749Z,36.78
2023-04-06T15:48:13.273Z,37.26
2023-04-06T15:50:41.735Z,36.96
2023-04-06T15:53:09.904Z,38.81
2023-04-06T15:55:37.952Z,38.53
2023-04-06T15:58:07.586Z,39.28
2023-04-06T16:00:35.844Z,39.24
2023-04-06T16:03:04.084Z,39.71
2023-04-06T16:05:34.858Z,39.81
2023-04-06T16:08:08.754Z,40.33
2023-04-06T16:10:37.081Z,40.82
2023-04-06T16:13:05.146Z,39.66
2023-04-06T16:15:33.147Z,42.69
2023-04-06T16:18:02.495Z,42.34
2023-04-06T16:20:30.617Z,41.88
2023-04-06T16:23:00.122Z,41.40
2023-04-06T16:25:28.400Z,42.59
2023-04-06T16:27:56.575Z,44.16
2023-04-06T16:30:26.122Z,46.70
2023-04-06T16:32:54.600Z,47.07
2023-04-06T16:35:23.311Z,47.24
2023-04-06T16:37:52.424Z,48.37
2023-04-06T16:40:21.886Z,48.50
2023-04-06T16:42:50.031Z,49.12
2023-04-06T16:45:18.585Z,50.15
2023-04-06T16:47:47.723Z,53.71
2023-04-06T16:50:15.858Z,53.46
2023-04-06T16:52:43.935Z,55.13
2023-04-06T16:55:12.361Z,55.11
2023-04-06T16:57:41.855Z,55.97
2023-04-06T17:00:11.196Z,56.62
2023-04-06T17:02:39.425Z,55.94
2023-04-06T17:05:08.154Z,55.85
2023-04-06T17:07:36.358Z,56.31
2023-04-06T17:10:04.821Z,56.44
2023-04-06T17:12:32.906Z,57.38
2023-04-06T17:15:02.699Z,56.59
2023-04-06T17:17:30.743Z,57.21
2023-04-06T17:19:58.991Z,57.57
2023-04-06T17:22:27.154Z,58.05
2023-04-06T17:24:59.006Z,57.66
2023-04-06T17:27:28.247Z,58.57
2023-04-06T17:29:56.376Z,57.98
2023-04-06T17:32:27.893Z,58.47
2023-04-06T17:34:56.052Z,58.92
2023-04-06T17:37:24.130Z,58.35
2023-04-06T17:39:52.136Z,59.28
2023-04-06T17:42:20.550Z,58.93
2023-04-06T17:44:52.452Z,59.17
2023-04-06T17:47:21.254Z,59.45
2023-04-06T17:49:50.719Z,60.13
2023-04-06T17:52:18.763Z,60.08
2023-04-06T17:54:46.824Z,60.31
2023-04-06T17:57:14.979Z,60.74
2023-04-06T17:59:45.263Z,60.86
2023-04-06T18:02:14.366Z,61.71
2023-04-06T18:04:44.284Z,62.13
2023-04-06T18:07:16.545Z,61.80
2023-04-06T18:09:44.949Z,62.61
2023-04-06T18:12:13.030Z,63.38
2023-04-06T18:14:41.359Z,63.77
2023-04-06T18:17:09.508Z,63.43
2023-04-06T18:19:37.646Z,64.79
2023-04-06T18:22:05.667Z,64.20
2023-04-06T18:24:42.265Z,65.16
2023-04-06T18:27:11.222Z,65.44
2023-04-06T18:29:39.283Z,65.18
2023-04-06T18:32:07.444Z,66.44
2023-04-06T18:34:36.146Z,67.40
2023-04-06T18:37:04.747Z,67.86
2023-04-06T18:39:33.078Z,67.61
2023-04-06T18:42:03.061Z,68.52
2023-04-06T18:44:31.638Z,67.90
2023-04-06T18:47:00.156Z,68.98
2023-04-06T18:49:28.431Z,69.77
2023-04-06T18:51:59.362Z,69.31
2023-04-06T18:54:27.572Z,70.20
2023-04-06T18:56:56.316Z,70.54
2023-04-06T18:59:30.118Z,69.92
2023-04-06T19:01:59.387Z,71.11
2023-04-06T19:04:29.517Z,71.19
2023-04-06T19:06:57.740Z,72.28
2023-04-06T19:09:26.525Z,72.27
2023-04-06T19:11:54.628Z,72.60
2023-04-06T19:14:22.732Z,72.06
2023-04-06T19:16:52.947Z,74.04
2023-04-06T19:19:21.562Z,74.67
2023-04-06T19:21:49.676Z,74.25
2023-04-06T19:24:17.764Z,75.19
2023-04-06T19:26:46.134Z,74.61
2023-04-06T19:29:14.226Z,74.67
2023-04-06T19:31:42.331Z,75.30
2023-04-06T19:34:17.390Z,74.44
2023-04-06T19:36:45.810Z,74.16
2023-04-06T19:39:16.653Z,75.54
2023-04-06T19:41:44.763Z,76.43
2023-04-06T19:46:42.566Z,76.30
2023-04-06T19:49:12.359Z,76.40
2023-04-06T19:51:40.468Z,76.98
2023-04-06T19:54:08.562Z,76.61
2023-04-06T19:56:36.644Z,76.28
2023-04-06T19:59:05.374Z,77.35
2023-04-06T20:01:33.522Z,77.89
2023-04-06T20:04:01.836Z,78.04
2023-04-06T20:06:32.770Z,79.18
2023-04-06T20:09:00.896Z,79.64
2023-04-06T20:11:28.999Z,80.02
2023-04-06T20:13:57.561Z,80.33
2023-04-06T20:16:25.678Z,81.94
2023-04-06T20:18:53.735Z,81.87
2023-04-06T20:21:21.848Z,82.07
2023-04-06T20:23:51.311Z,81.08
2023-04-06T20:26:19.746Z,82.16
2023-04-06T20:28:47.882Z,81.45
2023-04-06T20:31:15.935Z,82.08
2023-04-06T20:33:44.014Z,82.07
2023-04-06T20:36:12.730Z,81.48
2023-04-06T20:38:41.619Z,82.30
2023-04-06T20:41:11.040Z,82.20
2023-04-06T20:43:39.086Z,81.87
2023-04-06T20:46:07.566Z,82.36
2023-04-06T20:48:38.111Z,81.81
2023-04-06T20:51:06.741Z,82.13
2023-04-06T20:53:34.800Z,82.12
2023-04-06T20:56:02.859Z,82.68
2023-04-06T20:58:32.404Z,82.97
2023-04-06T21:01:00.570Z,82.65
2023-04-06T21:03:29.316Z,81.54
2023-04-06T21:05:58.342Z,82.63
2023-04-06T21:08:26.562Z,82.98
2023-04-06T21:10:54.669Z,83.14
2023-04-06T21:13:22.786Z,83.99
2023-04-06T21:15:52.595Z,83.85
2023-04-06T21:18:21.781Z,83.05
2023-04-06T21:20:50.240Z,83.73
2023-04-06T21:23:18.361Z,84.29
2023-04-06T21:25:46.394Z,84.24
2023-04-06T21:28:14.483Z,85.24
2023-04-06T21:30:43.483Z,85.14
2023-04-06T21:33:13.512Z,83.86
2023-04-06T21:35:42.310Z,85.30
2023-04-06T21:38:10.687Z,85.14
2023-04-06T21:40:38.861Z,85.55
2023-04-06T21:43:06.952Z,85.61
2023-04-06T21:45:35.040Z,85.77
2023-04-06T21:48:03.670Z,85.56
2023-04-06T21:50:33.225Z,86.66
2023-04-06T21:53:01.313Z,86.56
2023-04-06T21:55:29.447Z,86.42
2023-04-06T21:57:57.547Z,86.66
2023-04-06T22:00:26.133Z,86.97
2023-04-06T22:02:54.512Z,86.57
2023-04-06T22:05:22.827Z,86.29
2023-04-06T22:07:53.752Z,87.31
2023-04-06T22:10:22.200Z,87.60
2023-04-06T22:12:50.724Z,87.42
2023-04-06T22:15:19.269Z,87.17
2023-04-06T22:17:47.332Z,87.01
2023-04-06T22:20:15.742Z,88.26
2023-04-06T22:22:43.898Z,88.62
2023-04-06T22:25:13.804Z,88.09
2023-04-06T22:27:41.976Z,88.44
2023-04-06T22:30:11.572Z,88.52
2023-04-06T22:32:39.633Z,88.89
2023-04-06T22:35:09.023Z,88.83
2023-04-06T22:37:37.139Z,88.72
2023-04-06T22:40:05.671Z,88.41
2023-04-06T22:42:35.486Z,88.38
2023-04-06T22:45:03.563Z,88.32
2023-04-06T22:47:31.746Z,87.90
2023-04-06T22:49:59.866Z,87.81
2023-04-06T22:52:27.899Z,88.22
2023-04-06T22:54:56.606Z,88.07
2023-04-06T22:57:24.732Z,87.62
2023-04-06T22:59:54.203Z,88.22
2023-04-06T23:02:22.413Z,88.95
2023-04-06T23:04:50.635Z,88.20
2023-04-06T23:07:18.684Z,88.52
2023-04-06T23:09:47.204Z,89.00
2023-04-06T23:12:15.544Z,88.47
2023-04-06T23:14:43.694Z,88.41
2023-04-06T23:17:13.422Z,88.32
2023-04-06T23:19:41.739Z,88.92
2023-04-06T23:22:10.277Z,88.82
2023-04-06T23:24:38.673Z,88.88
2023-04-06T23:27:07.088Z,89.25
2023-04-06T23:29:35.735Z,89.31
2023-04-06T23:32:03.945Z,89.47
2023-04-06T23:34:33.987Z,89.54
2023-04-06T23:37:03.220Z,89.63
2023-04-06T23:39:31.701Z,89.23
2023-04-06T23:42:00.229Z,89.56
2023-04-06T23:44:30.889Z,89.26
2023-04-06T23:46:59.011Z,89.23
2023-04-06T23:49:27.404Z,89.89
2023-04-06T23:51:57.729Z,90.00
2023-04-06T23:54:26.239Z,88.96
2023-04-06T23:56:57.055Z,89.49
2023-04-06T23:59:25.461Z,89.31
